Weather at Josep Tarradellas Barcelona-El Prat Airport

Public forecast

Using degrees Celsius for public forecast. Weather courtesy of forecast.io.

Current aviation weather report (METAR) for Josep Tarradellas Barcelona-El Prat Airport

Retrieved 2021/10/22 04:30 UTC (1 hour ago):

LEBL 220430Z 33008KT 9999 FEW020 16/12 Q1017 NOSIG

Aviation forecast (TAF) for Josep Tarradellas Barcelona-El Prat Airport

Retrieved 2021-10-22 00:27 UTC (5 hours ago):

TAF LEBL 212300Z 2200/2224 VRB04KT 9999 FEW020 TX22/2212Z TN15/2206Z PROB40 TEMPO 2204/2208 4000 SHRA FEW020TCU BECMG 2201/2203 34006KT BECMG 2209/2211 22005KT